Time;durP1;ratioP1;P1;durP2;ratioP2;P2;SDS_P1;SDS_P2;PMS_P1;PMS_P2;Temp;Humidity;BMP_temperature;BMP_pressure;BME280_temperature;BME280_humidity;BME280_pressure;Samples;Min_cycle;Max_cycle;Signal;HPM_P1;HPM_P2
2022/03/13 00:00:57;;;;;;;60.10;25.20;;;-3.40;76.10;;;;;;4140191;28;20069;-66
2022/03/13 00:03:02;;;;;;;54.70;23.30;;;-3.40;76.50;;;;;;4139633;28;20145;-51
2022/03/13 00:05:08;;;;;;;45.05;20.88;;;-3.40;75.90;;;;;;4140511;28;20076;-65
2022/03/13 00:07:16;;;;;;;54.22;23.85;;;-3.40;75.80;;;;;;4139876;28;20434;-51
2022/03/13 00:09:21;;;;;;;52.95;23.60;;;-3.40;76.00;;;;;;4140403;28;20092;-55
2022/03/13 00:11:23;;;;;;;54.42;24.52;;;-3.40;76.40;;;;;;4139561;28;20096;-51
2022/03/13 00:13:29;;;;;;;59.45;25.50;;;-3.40;76.50;;;;;;4140566;28;20600;-67
2022/03/13 00:15:35;;;;;;;50.55;23.75;;;-3.50;76.20;;;;;;4139373;28;20589;-61
2022/03/13 00:17:36;;;;;;;55.75;24.48;;;-3.50;76.80;;;;;;4141036;28;20092;-53
2022/03/13 00:19:38;;;;;;;57.60;25.42;;;-3.50;77.10;;;;;;4139279;28;20472;-64
2022/03/13 00:21:40;;;;;;;54.38;24.58;;;-3.50;77.40;;;;;;4141015;28;20430;-57
2022/03/13 00:23:42;;;;;;;55.45;25.17;;;-3.50;76.90;;;;;;4139389;28;20042;-55
2022/03/13 00:25:43;;;;;;;57.28;25.25;;;-3.60;76.80;;;;;;4142159;28;20030;-43
2022/03/13 00:27:45;;;;;;;49.00;22.88;;;-3.50;77.40;;;;;;4142536;28;20076;-69
2022/03/13 00:29:46;;;;;;;49.83;23.25;;;-3.50;77.10;;;;;;4143475;28;20475;-47
2022/03/13 00:31:48;;;;;;;53.10;23.27;;;-3.50;77.40;;;;;;4141720;28;20041;-68
2022/03/13 00:33:49;;;;;;;50.83;22.40;;;-3.40;77.30;;;;;;4143966;28;20445;-46
2022/03/13 00:35:50;;;;;;;50.75;23.23;;;-3.40;77.60;;;;;;4142714;28;20104;-62
2022/03/13 00:37:51;;;;;;;48.20;22.60;;;-3.40;77.50;;;;;;4142928;28;20038;-63
2022/03/13 00:39:54;;;;;;;54.28;21.27;;;-3.30;77.40;;;;;;4143221;28;20493;-58
2022/03/13 00:41:56;;;;;;;47.95;21.60;;;-3.30;77.50;;;;;;4252525;23;20107;-44
2022/03/13 00:43:57;;;;;;;49.55;21.25;;;-3.30;77.90;;;;;;4158459;28;20436;-49
2022/03/13 00:45:58;;;;;;;51.53;21.45;;;-3.30;77.80;;;;;;4158878;28;20091;-68
2022/03/13 00:48:00;;;;;;;46.78;21.13;;;-3.30;78.30;;;;;;4159122;28;20049;-69
2022/03/13 00:50:01;;;;;;;49.90;20.25;;;-3.30;78.60;;;;;;4159419;28;20088;-75
2022/03/13 00:52:04;;;;;;;39.10;17.52;;;-3.20;78.70;;;;;;4159842;28;20030;-71
2022/03/13 00:54:05;;;;;;;41.08;18.15;;;-3.20;77.90;;;;;;4434489;23;20053;-55
2022/03/13 00:56:07;;;;;;;38.67;15.98;;;-3.20;77.70;;;;;;4174414;28;20782;-83
2022/03/13 00:58:08;;;;;;;38.50;17.27;;;-3.10;77.80;;;;;;4175713;28;20083;-53
2022/03/13 01:00:13;;;;;;;33.72;15.95;;;-3.10;77.50;;;;;;4175848;28;20029;-83
2022/03/13 01:02:15;;;;;;;36.08;17.05;;;-3.00;77.60;;;;;;4174852;28;20634;-64
2022/03/13 01:04:16;;;;;;;38.20;17.27;;;-3.00;77.40;;;;;;4176121;28;20107;-61
2022/03/13 01:06:19;;;;;;;34.40;16.10;;;-3.00;77.70;;;;;;4174801;28;20507;-43
2022/03/13 01:08:20;;;;;;;32.17;12.15;;;-2.90;78.50;;;;;;4226406;22;20053;-49
2022/03/13 01:10:22;;;;;;;25.73;11.52;;;-2.80;78.20;;;;;;4156915;28;20473;-82
2022/03/13 01:12:23;;;;;;;27.08;11.25;;;-2.80;77.50;;;;;;4174838;28;20558;-60
2022/03/13 01:14:24;;;;;;;28.95;12.18;;;-2.70;77.60;;;;;;4157247;28;20049;-46
2022/03/13 01:16:29;;;;;;;23.08;10.98;;;-2.70;77.20;;;;;;4156357;28;20457;-52
2022/03/13 01:18:30;;;;;;;20.27;10.05;;;-2.60;77.10;;;;;;4175836;28;20051;-78
2022/03/13 01:20:31;;;;;;;25.73;9.70;;;-2.60;77.10;;;;;;4174412;28;20113;-46
2022/03/13 01:22:32;;;;;;;22.70;9.95;;;-2.50;77.20;;;;;;4158463;28;20079;-76
2022/03/13 01:24:43;;;;;;;25.65;11.32;;;-2.50;77.10;;;;;;4174029;28;20037;-65
2022/03/13 01:26:51;;;;;;;26.92;10.75;;;-2.50;76.60;;;;;;4175291;28;20424;-74
2022/03/13 01:28:57;;;;;;;29.38;10.90;;;-2.40;76.60;;;;;;4174243;28;20453;-47
2022/03/13 01:30:59;;;;;;;18.40;9.32;;;-2.40;76.50;;;;;;4176008;28;20024;-65
2022/03/13 01:33:00;;;;;;;22.27;9.93;;;-2.40;76.40;;;;;;4174056;28;20084;-73
2022/03/13 01:35:03;;;;;;;19.05;9.20;;;-2.30;76.30;;;;;;4175723;28;20045;-71
2022/03/13 01:37:10;;;;;;;21.65;9.30;;;-2.30;76.20;;;;;;4173189;28;20049;-70
2022/03/13 01:39:14;;;;;;;23.98;10.02;;;-2.30;76.20;;;;;;4176062;28;20033;-43
2022/03/13 01:41:16;;;;;;;21.33;9.38;;;-2.20;76.10;;;;;;4156882;28;20034;-62
2022/03/13 01:43:17;;;;;;;20.15;9.57;;;-2.20;75.80;;;;;;4175237;28;20878;-65
2022/03/13 01:45:20;;;;;;;19.33;8.40;;;-2.20;75.90;;;;;;4156575;28;20021;-48
2022/03/13 01:47:21;;;;;;;22.67;10.40;;;-2.20;75.80;;;;;;4176065;28;20542;-70
2022/03/13 01:49:24;;;;;;;19.85;8.65;;;-2.20;76.00;;;;;;4174897;28;20479;-44
2022/03/13 01:51:27;;;;;;;22.75;8.30;;;-2.20;75.90;;;;;;4175753;28;20033;-46
2022/03/13 01:53:28;;;;;;;19.00;8.50;;;-2.10;75.90;;;;;;4174995;28;20083;-56
2022/03/13 01:55:30;;;;;;;19.60;8.97;;;-2.10;75.80;;;;;;4158945;28;20064;-54
2022/03/13 01:57:32;;;;;;;19.60;8.55;;;-2.10;75.90;;;;;;4177936;28;20266;-61
2022/03/13 01:59:35;;;;;;;20.73;8.40;;;-2.10;75.80;;;;;;4173858;28;20555;-69
2022/03/13 02:01:38;;;;;;;17.42;8.38;;;-2.00;75.60;;;;;;4175251;28;20032;-48
2022/03/13 02:03:40;;;;;;;22.85;9.15;;;-2.00;75.40;;;;;;4173981;28;20432;-68
2022/03/13 02:05:42;;;;;;;16.85;8.05;;;-2.00;75.30;;;;;;4174703;28;20086;-80
2022/03/13 02:07:45;;;;;;;20.20;8.47;;;-2.00;75.30;;;;;;4174179;28;20082;-57
2022/03/13 02:09:47;;;;;;;19.67;8.05;;;-2.00;75.10;;;;;;4177745;28;20289;-64
2022/03/13 02:11:51;;;;;;;25.83;8.70;;;-1.90;75.20;;;;;;4173665;28;20095;-67
2022/03/13 02:13:54;;;;;;;17.77;7.17;;;-1.90;75.10;;;;;;4175114;28;20033;-68
2022/03/13 02:15:55;;;;;;;18.45;7.32;;;-1.80;74.90;;;;;;4173886;28;20831;-67
2022/03/13 02:17:58;;;;;;;19.10;7.90;;;-1.80;74.90;;;;;;4174745;28;20033;-58
2022/03/13 02:20:00;;;;;;;19.10;8.80;;;-1.90;74.60;;;;;;4173703;28;20278;-64
2022/03/13 02:22:01;;;;;;;19.70;8.73;;;-1.80;74.60;;;;;;4174824;28;20262;-67
2022/03/13 02:24:09;;;;;;;19.33;7.90;;;-1.90;74.60;;;;;;4173697;28;20797;-51
2022/03/13 02:26:11;;;;;;;20.20;8.87;;;-1.80;74.90;;;;;;4173959;28;20266;-74
2022/03/13 02:28:13;;;;;;;22.87;10.30;;;-1.90;74.80;;;;;;4174193;28;20304;-68
2022/03/13 02:30:15;;;;;;;25.93;10.10;;;-1.80;75.00;;;;;;4174133;28;20258;-54
2022/03/13 02:32:18;;;;;;;20.57;10.37;;;-1.80;75.00;;;;;;4174126;28;20331;-57
2022/03/13 02:34:20;;;;;;;21.50;10.07;;;-1.90;75.00;;;;;;4173940;28;20262;-73
2022/03/13 02:36:34;;;;;;;21.73;9.23;;;-1.90;75.10;;;;;;4143462;28;20345;-49
2022/03/13 02:38:35;;;;;;;19.87;8.63;;;-1.90;74.80;;;;;;4172871;28;20278;-65
2022/03/13 02:40:36;;;;;;;18.40;8.33;;;-1.90;74.70;;;;;;4174856;28;20258;-50
2022/03/13 02:42:37;;;;;;;17.67;8.20;;;-1.80;74.50;;;;;;4173461;28;20266;-48
2022/03/13 02:44:38;;;;;;;16.90;7.60;;;-1.80;74.30;;;;;;4174442;28;20300;-54
2022/03/13 02:47:01;;;;;;;20.17;8.13;;;-1.80;74.00;;;;;;4173443;28;20266;-46
2022/03/13 02:49:02;;;;;;;19.47;8.80;;;-1.80;74.20;;;;;;4173716;28;20763;-51
2022/03/13 02:51:03;;;;;;;23.73;9.30;;;-1.70;74.10;;;;;;4172923;28;20328;-43
2022/03/13 02:53:06;;;;;;;22.17;8.90;;;-1.80;74.10;;;;;;4174520;28;20620;-56
2022/03/13 02:55:08;;;;;;;21.87;9.00;;;-1.80;74.10;;;;;;4173292;28;20351;-64
2022/03/13 02:57:09;;;;;;;16.37;6.70;;;-1.70;73.80;;;;;;4155961;28;20718;-62
2022/03/13 02:59:12;;;;;;;13.53;6.13;;;-1.70;73.40;;;;;;4172716;28;20718;-62
2022/03/13 03:01:13;;;;;;;14.98;5.18;;;-1.70;73.00;;;;;;4173590;28;20359;-77
2022/03/13 03:03:16;;;;;;;13.40;4.83;;;-1.70;72.30;;;;;;4172685;28;20421;-66
2022/03/13 03:05:17;;;;;;;13.20;5.90;;;-1.60;72.10;;;;;;4173919;28;20262;-43
2022/03/13 03:07:19;;;;;;;12.57;5.57;;;-1.60;72.40;;;;;;4155597;28;20278;-54
2022/03/13 03:09:20;;;;;;;13.33;6.57;;;-1.50;71.80;;;;;;4173579;28;20827;-52
2022/03/13 03:11:22;;;;;;;13.37;5.73;;;-1.50;71.60;;;;;;4156562;28;20266;-60
2022/03/13 03:13:23;;;;;;;12.13;5.93;;;-1.50;71.80;;;;;;4172747;28;20323;-68
2022/03/13 03:15:26;;;;;;;13.33;5.53;;;-1.50;72.00;;;;;;4173968;28;20289;-71
2022/03/13 03:19:32;;;;;;;20.27;9.67;;;-1.60;72.60;;;;;;4172250;28;20314;-60
2022/03/13 03:21:33;;;;;;;23.23;10.47;;;-1.60;73.10;;;;;;4172233;28;20290;-64
2022/03/13 03:23:35;;;;;;;31.43;11.70;;;-1.70;73.60;;;;;;4174301;28;20677;-59
2022/03/13 03:25:36;;;;;;;25.70;11.47;;;-1.60;73.70;;;;;;4173039;28;20327;-75
2022/03/13 03:27:42;;;;;;;27.10;12.77;;;-1.60;73.90;;;;;;4155207;28;20321;-62
2022/03/13 03:29:43;;;;;;;26.93;12.10;;;-1.70;73.90;;;;;;4172510;28;20351;-52
2022/03/13 03:31:46;;;;;;;29.90;14.60;;;-1.60;74.00;;;;;;4173761;28;20274;-52
2022/03/13 03:33:48;;;;;;;25.00;13.03;;;-1.70;74.00;;;;;;4172309;28;20347;-51
2022/03/13 03:35:49;;;;;;;25.80;12.80;;;-1.70;74.10;;;;;;4173585;28;20285;-62
2022/03/13 03:37:52;;;;;;;23.03;10.27;;;-1.70;74.30;;;;;;4172463;28;20339;-64
2022/03/13 03:39:53;;;;;;;20.63;9.30;;;-1.70;74.30;;;;;;4156346;28;20274;-57
2022/03/13 03:41:54;;;;;;;19.97;9.73;;;-1.70;74.20;;;;;;4173769;28;20262;-61
2022/03/13 03:43:56;;;;;;;19.97;9.73;;;-1.60;73.90;;;;;;4175239;28;20343;-52
2022/03/13 03:45:57;;;;;;;20.83;10.20;;;-1.60;73.90;;;;;;4394957;23;20796;-72
2022/03/13 03:47:59;;;;;;;20.03;8.50;;;-1.60;73.80;;;;;;4174922;28;21237;-52
2022/03/13 03:50:00;;;;;;;15.67;8.67;;;-1.60;73.70;;;;;;4174044;28;20308;-67
2022/03/13 03:52:02;;;;;;;16.67;8.00;;;-1.60;73.70;;;;;;4174452;28;20278;-80
2022/03/13 03:54:05;;;;;;;17.10;8.03;;;-1.50;73.70;;;;;;4172046;28;20332;-81
2022/03/13 03:58:23;;;;;;;15.68;6.47;;;-1.50;73.10;;;;;;4302670;22;20685;-62
2022/03/13 04:00:24;;;;;;;12.33;6.13;;;-1.50;73.00;;;;;;4156979;28;20037;-59
2022/03/13 04:02:26;;;;;;;20.33;7.30;;;-1.50;72.80;;;;;;4177274;28;20274;-70
2022/03/13 04:04:27;;;;;;;14.33;6.53;;;-1.50;72.90;;;;;;4175891;28;20611;-53
2022/03/13 04:06:29;;;;;;;15.53;5.57;;;-1.40;72.70;;;;;;4176803;28;20278;-84
2022/03/13 04:08:30;;;;;;;11.57;5.60;;;-1.40;72.00;;;;;;4175657;28;20278;-62
2022/03/13 04:10:31;;;;;;;10.80;5.00;;;-1.30;71.70;;;;;;4177032;28;20331;-56
2022/03/13 04:12:34;;;;;;;13.20;5.60;;;-1.30;71.20;;;;;;4176563;28;20596;-54
2022/03/13 04:14:35;;;;;;;10.53;4.97;;;-1.30;70.70;;;;;;4176857;28;20646;-83
2022/03/13 04:16:36;;;;;;;12.53;5.37;;;-1.20;70.80;;;;;;4175191;28;20691;-60
2022/03/13 04:18:37;;;;;;;14.23;6.23;;;-1.10;70.80;;;;;;4268125;23;20366;-56
2022/03/13 04:20:38;;;;;;;13.90;6.23;;;-1.10;71.00;;;;;;4142205;28;20722;-42
2022/03/13 04:22:40;;;;;;;16.00;6.63;;;-1.10;71.30;;;;;;4143042;28;20271;-47
2022/03/13 04:24:41;;;;;;;13.53;6.27;;;-1.10;71.60;;;;;;4142873;28;20279;-60
2022/03/13 04:26:44;;;;;;;17.53;7.30;;;-1.10;71.70;;;;;;4142722;28;20271;-55
2022/03/13 04:28:49;;;;;;;12.60;6.67;;;-1.20;71.70;;;;;;4143989;28;20271;-65
2022/03/13 04:30:53;;;;;;;16.07;6.83;;;-1.20;71.80;;;;;;4143344;28;20671;-58
2022/03/13 04:32:54;;;;;;;21.70;7.70;;;-1.20;71.80;;;;;;4143252;28;20272;-55
2022/03/13 04:34:55;;;;;;;13.47;6.33;;;-1.20;71.90;;;;;;4142624;28;20990;-61
2022/03/13 04:36:59;;;;;;;11.73;6.60;;;-1.20;71.80;;;;;;4143656;28;20299;-49
2022/03/13 04:39:01;;;;;;;17.77;6.77;;;-1.20;71.70;;;;;;4142274;28;20272;-50
2022/03/13 04:41:02;;;;;;;15.80;6.47;;;-1.20;71.60;;;;;;4144054;28;20830;-72
2022/03/13 04:43:04;;;;;;;13.93;6.40;;;-1.20;71.60;;;;;;4142267;28;20279;-69
2022/03/13 04:45:07;;;;;;;15.07;6.10;;;-1.20;71.60;;;;;;4142951;28;20341;-64
2022/03/13 04:47:08;;;;;;;11.40;6.10;;;-1.20;71.70;;;;;;4142707;28;20267;-69
2022/03/13 04:49:09;;;;;;;17.63;6.57;;;-1.10;71.70;;;;;;4143453;28;20275;-62
2022/03/13 04:51:11;;;;;;;12.33;5.77;;;-1.20;71.60;;;;;;4142432;28;20318;-55
2022/03/13 04:53:13;;;;;;;13.13;6.57;;;-1.10;71.50;;;;;;4142863;28;20313;-69
2022/03/13 04:55:14;;;;;;;14.67;5.70;;;-1.10;71.50;;;;;;4142374;28;20271;-56
2022/03/13 04:57:15;;;;;;;16.43;6.50;;;-1.10;71.30;;;;;;4142262;28;20287;-68
2022/03/13 04:59:16;;;;;;;10.97;5.20;;;-1.10;70.80;;;;;;4142661;28;20655;-65
2022/03/13 05:01:20;;;;;;;10.73;5.33;;;-1.00;71.10;;;;;;4141601;28;20389;-46
2022/03/13 05:03:22;;;;;;;11.87;5.17;;;-1.00;71.10;;;;;;4141372;28;20264;-51
2022/03/13 05:05:23;;;;;;;10.60;5.10;;;-0.90;71.10;;;;;;4141894;28;20283;-60
2022/03/13 05:07:26;;;;;;;11.03;5.20;;;-0.90;70.20;;;;;;4142814;28;20675;-61
2022/03/13 05:09:28;;;;;;;13.80;4.80;;;-0.90;70.10;;;;;;4141655;28;20283;-55
2022/03/13 05:11:29;;;;;;;14.87;6.07;;;-0.90;70.50;;;;;;4142584;28;20686;-54
2022/03/13 05:13:31;;;;;;;16.00;6.30;;;-0.80;70.80;;;;;;4141326;28;20329;-51
2022/03/13 05:15:33;;;;;;;23.00;8.20;;;-0.80;70.80;;;;;;4553776;23;20290;-53
2022/03/13 05:17:35;;;;;;;21.90;9.10;;;-0.80;71.00;;;;;;4175110;28;20352;-79
2022/03/13 05:19:36;;;;;;;25.17;9.73;;;-0.90;71.20;;;;;;4174891;28;20712;-56
2022/03/13 05:21:37;;;;;;;28.73;9.50;;;-0.90;71.40;;;;;;4176653;28;20274;-53
2022/03/13 05:23:38;;;;;;;24.70;10.93;;;-0.90;71.70;;;;;;4174787;28;20282;-60
2022/03/13 05:25:40;;;;;;;21.57;9.97;;;-0.90;72.30;;;;;;4175806;28;20312;-57
2022/03/13 05:27:42;;;;;;;25.20;10.93;;;-1.00;72.40;;;;;;4174178;28;20282;-43
2022/03/13 05:29:43;;;;;;;28.43;10.63;;;-1.00;72.60;;;;;;4175783;28;20278;-53
2022/03/13 05:31:44;;;;;;;26.03;10.93;;;-1.00;72.60;;;;;;4174514;28;21039;-52
2022/03/13 05:33:45;;;;;;;22.53;10.13;;;-1.00;72.70;;;;;;4174502;28;20283;-58
2022/03/13 05:35:46;;;;;;;18.00;8.97;;;-0.90;72.80;;;;;;4173057;28;20293;-60
2022/03/13 05:37:48;;;;;;;18.33;9.43;;;-0.80;72.70;;;;;;4175113;28;20332;-41
2022/03/13 05:39:49;;;;;;;30.40;12.23;;;-0.80;72.70;;;;;;4174006;28;20315;-59
2022/03/13 05:41:50;;;;;;;23.17;9.70;;;-0.80;72.70;;;;;;4173803;28;20308;-49
2022/03/13 05:43:52;;;;;;;26.37;10.43;;;-0.70;72.90;;;;;;4174198;28;20274;-63
2022/03/13 05:45:53;;;;;;;27.07;9.80;;;-0.70;72.80;;;;;;4174853;28;20607;-60
2022/03/13 05:47:57;;;;;;;24.03;10.30;;;-0.60;72.80;;;;;;4157015;28;20317;-53
2022/03/13 05:50:00;;;;;;;19.43;9.70;;;-0.50;72.50;;;;;;4174341;28;20316;-46
2022/03/13 05:52:01;;;;;;;18.87;10.13;;;-0.40;72.50;;;;;;4175012;28;20270;-64
2022/03/13 05:54:03;;;;;;;25.40;8.90;;;-0.20;72.40;;;;;;4173414;28;20332;-48
2022/03/13 05:56:05;;;;;;;17.60;9.47;;;-0.10;72.40;;;;;;4175141;28;20344;-54
2022/03/13 05:58:06;;;;;;;24.00;9.83;;;0.10;72.20;;;;;;4173711;28;20727;-53
2022/03/13 06:00:11;;;;;;;27.00;10.17;;;0.30;72.20;;;;;;4175216;28;20788;-52
2022/03/13 06:02:12;;;;;;;29.57;13.47;;;0.50;71.70;;;;;;4173321;28;20282;-46
2022/03/13 06:04:13;;;;;;;23.27;9.30;;;0.60;71.00;;;;;;4157585;28;20388;-52
2022/03/13 06:06:15;;;;;;;27.80;13.67;;;0.80;70.40;;;;;;4173800;28;20320;-63
2022/03/13 06:08:16;;;;;;;24.67;12.13;;;1.00;69.90;;;;;;4367294;23;20307;-45
2022/03/13 06:10:17;;;;;;;19.43;9.30;;;1.10;69.20;;;;;;4156980;28;20341;-74
2022/03/13 06:12:19;;;;;;;19.30;8.50;;;1.30;69.40;;;;;;4158167;28;20263;-92
2022/03/13 06:14:20;;;;;;;15.97;7.93;;;1.50;68.90;;;;;;4158131;28;20270;-61
2022/03/13 06:16:23;;;;;;;20.17;10.80;;;1.50;68.40;;;;;;4157736;28;20364;-64
2022/03/13 06:18:27;;;;;;;20.63;10.67;;;1.70;68.60;;;;;;4139944;28;20768;-55
2022/03/13 06:20:28;;;;;;;17.87;9.40;;;1.80;68.60;;;;;;4139045;28;20275;-68
2022/03/13 06:22:29;;;;;;;25.47;10.97;;;1.90;68.10;;;;;;4157505;28;20274;-64
2022/03/13 06:24:32;;;;;;;24.20;13.10;;;1.90;67.20;;;;;;4156472;28;20286;-57
2022/03/13 06:26:34;;;;;;;17.10;10.00;;;1.80;66.90;;;;;;4157692;28;20287;-54
2022/03/13 06:28:35;;;;;;;17.53;9.10;;;1.70;66.80;;;;;;4156893;28;20270;-67
2022/03/13 06:30:37;;;;;;;17.63;9.13;;;1.70;66.80;;;;;;4157692;28;20274;-69
2022/03/13 06:32:44;;;;;;;16.57;9.67;;;1.70;67.10;;;;;;4156180;28;20341;-58
2022/03/13 06:34:45;;;;;;;14.13;7.30;;;1.70;67.50;;;;;;4157248;28;20279;-54
2022/03/13 06:36:47;;;;;;;12.67;6.33;;;1.80;66.70;;;;;;4156333;28;20299;-66
2022/03/13 06:38:48;;;;;;;16.23;6.97;;;1.80;66.80;;;;;;4157659;28;20332;-54
2022/03/13 06:40:49;;;;;;;12.43;6.93;;;1.80;66.80;;;;;;4156747;28;20267;-68
2022/03/13 06:42:53;;;;;;;12.93;7.10;;;1.80;66.50;;;;;;4157479;28;20682;-67
2022/03/13 06:44:54;;;;;;;17.90;7.30;;;1.80;66.30;;;;;;4140165;28;20269;-66
2022/03/13 06:46:55;;;;;;;12.03;7.23;;;1.70;66.60;;;;;;4152688;28;20742;-62
2022/03/13 06:48:56;;;;;;;15.27;7.27;;;1.80;66.60;;;;;;4157221;28;20270;-61
2022/03/13 06:50:58;;;;;;;16.90;8.77;;;1.90;66.20;;;;;;4157084;28;20317;-68
2022/03/13 06:53:01;;;;;;;17.43;10.40;;;1.90;66.20;;;;;;4156597;28;20777;-62
2022/03/13 06:55:04;;;;;;;18.77;11.87;;;1.90;65.80;;;;;;4156053;28;20677;-66
2022/03/13 06:57:05;;;;;;;16.30;8.23;;;1.90;66.20;;;;;;4157150;28;20356;-68
2022/03/13 06:59:07;;;;;;;14.37;7.80;;;2.00;65.80;;;;;;4156393;28;20278;-58
2022/03/13 07:01:09;;;;;;;17.60;8.40;;;2.00;66.00;;;;;;4156593;28;20666;-63
2022/03/13 07:03:11;;;;;;;10.90;6.77;;;2.10;65.70;;;;;;4155420;28;20348;-67
2022/03/13 07:05:13;;;;;;;16.07;7.90;;;2.10;65.50;;;;;;4157447;28;20287;-66
2022/03/13 07:07:14;;;;;;;18.07;8.87;;;2.10;65.60;;;;;;4156274;28;20316;-55
2022/03/13 07:09:15;;;;;;;17.87;9.17;;;2.30;65.70;;;;;;4158497;28;21230;-69
2022/03/13 07:11:16;;;;;;;12.30;6.63;;;2.40;65.70;;;;;;4156166;28;20270;-61
2022/03/13 07:13:18;;;;;;;14.10;6.40;;;2.50;65.50;;;;;;4158335;28;20763;-74
2022/03/13 07:15:19;;;;;;;11.00;5.70;;;2.70;65.40;;;;;;4156071;28;20616;-74
2022/03/13 07:17:21;;;;;;;13.33;6.57;;;2.90;65.20;;;;;;4139944;28;21093;-47
2022/03/13 07:19:24;;;;;;;11.83;6.27;;;3.10;65.10;;;;;;4166178;28;20368;-83
2022/03/13 07:21:25;;;;;;;12.73;6.80;;;3.50;64.70;;;;;;4167872;28;20282;-63
2022/03/13 07:23:26;;;;;;;15.30;6.23;;;4.00;64.30;;;;;;4158725;28;20324;-80
2022/03/13 07:25:27;;;;;;;14.83;6.73;;;4.40;63.70;;;;;;4157657;28;20283;-85
2022/03/13 07:27:28;;;;;;;18.00;7.57;;;4.90;63.20;;;;;;4159784;28;20301;-70
2022/03/13 07:29:30;;;;;;;12.17;6.43;;;5.40;62.60;;;;;;4159186;28;20680;-89
2022/03/13 07:31:31;;;;;;;14.10;8.00;;;5.70;61.30;;;;;;4159575;28;20354;-62
2022/03/13 07:33:33;;;;;;;12.90;6.30;;;5.70;60.90;;;;;;4157276;28;20868;-84
2022/03/13 07:35:34;;;;;;;14.30;5.13;;;6.10;60.70;;;;;;4160090;28;20302;-72
2022/03/13 07:37:35;;;;;;;13.40;5.80;;;6.00;59.40;;;;;;4142338;28;20299;-67
2022/03/13 07:39:38;;;;;;;18.33;5.73;;;5.90;60.30;;;;;;4160651;28;20309;-57
2022/03/13 07:41:40;;;;;;;18.17;6.17;;;5.70;59.90;;;;;;4159623;28;20809;-68
2022/03/13 07:43:41;;;;;;;14.20;5.50;;;5.70;59.70;;;;;;4160444;28;21029;-68
2022/03/13 07:45:42;;;;;;;12.43;5.87;;;5.70;59.70;;;;;;4140816;28;20267;-49
2022/03/13 07:47:43;;;;;;;12.00;6.17;;;5.60;59.90;;;;;;4158913;28;21274;-54
2022/03/13 07:49:45;;;;;;;13.60;5.60;;;5.50;59.00;;;;;;4159203;28;20321;-66
2022/03/13 07:51:47;;;;;;;7.50;4.80;;;5.40;59.10;;;;;;4159720;28;20263;-52
2022/03/13 07:53:48;;;;;;;13.37;2.90;;;5.10;56.20;;;;;;4141054;28;20334;-66
2022/03/13 07:55:49;;;;;;;9.53;3.20;;;4.90;57.70;;;;;;4159558;28;20297;-67
2022/03/13 07:57:50;;;;;;;7.77;3.10;;;5.00;57.80;;;;;;4159313;28;20290;-65
2022/03/13 07:59:51;;;;;;;7.10;3.60;;;5.40;57.70;;;;;;4158946;28;20325;-51
2022/03/13 08:01:53;;;;;;;4.53;2.53;;;5.60;57.00;;;;;;4141858;28;20314;-53
2022/03/13 08:03:54;;;;;;;7.07;3.27;;;6.20;57.00;;;;;;4158782;28;20263;-70
2022/03/13 08:05:55;;;;;;;6.17;3.40;;;6.30;55.50;;;;;;4159305;28;20282;-49
2022/03/13 08:07:56;;;;;;;7.13;3.53;;;6.10;55.30;;;;;;4159890;28;20275;-58
2022/03/13 08:09:58;;;;;;;8.77;2.70;;;6.00;55.40;;;;;;4160066;28;20298;-46
2022/03/13 08:11:59;;;;;;;5.30;2.60;;;6.10;55.60;;;;;;4158886;28;20283;-65
2022/03/13 08:14:04;;;;;;;3.97;2.60;;;6.00;55.20;;;;;;4159839;28;20278;-54
2022/03/13 08:16:05;;;;;;;4.10;2.73;;;6.00;55.20;;;;;;4156119;28;20325;-74
2022/03/13 08:18:09;;;;;;;6.40;2.70;;;6.00;55.20;;;;;;4159870;28;20262;-62
2022/03/13 08:20:11;;;;;;;5.83;2.70;;;5.80;54.90;;;;;;4158923;28;20262;-65
2022/03/13 08:22:12;;;;;;;9.33;2.90;;;6.00;54.80;;;;;;4159446;28;20723;-66
2022/03/13 08:24:17;;;;;;;5.53;2.97;;;6.10;54.60;;;;;;4140485;28;20284;-59
2022/03/13 08:26:19;;;;;;;6.93;2.60;;;6.10;54.20;;;;;;4159067;28;20785;-66
2022/03/13 08:28:20;;;;;;;30.70;12.30;;;5.90;54.10;;;;;;4158974;28;20271;-48
2022/03/13 08:30:22;;;;;;;11.47;2.73;;;5.70;54.30;;;;;;4158868;28;20924;-55
2022/03/13 08:32:24;;;;;;;7.80;3.27;;;5.60;53.80;;;;;;4158679;28;20348;-61
2022/03/13 08:34:28;;;;;;;5.53;3.07;;;5.40;53.60;;;;;;4157975;28;20694;-77
2022/03/13 08:36:30;;;;;;;5.87;2.80;;;5.40;54.50;;;;;;4141969;28;20436;-58
2022/03/13 08:38:31;;;;;;;11.83;5.00;;;5.50;54.50;;;;;;4153032;28;20360;-58
2022/03/13 08:40:32;;;;;;;7.30;3.43;;;5.70;54.40;;;;;;4159747;28;20283;-49
2022/03/13 08:42:33;;;;;;;19.47;6.67;;;5.80;54.30;;;;;;4152792;28;20309;-89
2022/03/13 08:44:35;;;;;;;7.47;3.77;;;5.90;54.20;;;;;;4153858;28;20666;-56
2022/03/13 08:46:38;;;;;;;12.57;5.97;;;6.00;53.90;;;;;;4157411;28;20275;-61
2022/03/13 08:48:40;;;;;;;15.70;7.63;;;6.00;53.10;;;;;;4160258;28;20340;-53
2022/03/13 08:50:41;;;;;;;11.80;5.03;;;5.80;53.30;;;;;;4140896;28;20303;-72
2022/03/13 08:52:43;;;;;;;6.77;3.67;;;5.70;53.40;;;;;;4159551;28;20290;-62
2022/03/13 08:54:44;;;;;;;8.43;4.13;;;5.60;53.50;;;;;;4158387;28;20313;-60
2022/03/13 08:56:48;;;;;;;14.70;7.33;;;5.50;53.40;;;;;;4158686;28;20409;-45
2022/03/13 08:58:49;;;;;;;7.83;4.30;;;5.40;53.70;;;;;;4158002;28;20336;-46
2022/03/13 09:00:51;;;;;;;9.57;4.87;;;5.40;53.70;;;;;;4158047;28;20944;-45
2022/03/13 09:02:53;;;;;;;6.50;3.43;;;5.40;53.90;;;;;;4141961;28;20813;-50
2022/03/13 09:04:54;;;;;;;4.93;3.00;;;5.30;54.10;;;;;;4158500;28;20321;-55
2022/03/13 09:06:55;;;;;;;6.20;2.97;;;5.40;54.30;;;;;;4159009;28;20750;-58
2022/03/13 09:08:57;;;;;;;7.40;2.47;;;5.40;54.10;;;;;;4157656;28;20286;-56
2022/03/13 09:10:58;;;;;;;9.67;3.97;;;5.40;54.30;;;;;;4159213;28;20255;-46
2022/03/13 09:13:00;;;;;;;8.97;3.50;;;5.50;54.00;;;;;;4158598;28;20706;-51
2022/03/13 09:15:02;;;;;;;6.23;2.93;;;5.60;54.20;;;;;;4159339;28;20300;-64
2022/03/13 09:17:04;;;;;;;5.30;2.33;;;5.60;54.30;;;;;;4158673;28;20291;-59
2022/03/13 09:19:07;;;;;;;8.57;2.40;;;5.70;54.30;;;;;;4159722;28;20329;-55
2022/03/13 09:21:08;;;;;;;3.07;2.00;;;5.70;54.20;;;;;;4157970;28;20788;-46
2022/03/13 09:23:09;;;;;;;5.40;2.77;;;5.60;53.80;;;;;;4160263;28;20282;-48
2022/03/13 09:25:10;;;;;;;4.50;2.40;;;5.60;53.90;;;;;;4158988;28;20309;-60
2022/03/13 09:27:12;;;;;;;7.40;2.90;;;5.60;53.90;;;;;;4158738;28;20270;-63
2022/03/13 09:29:14;;;;;;;6.77;3.47;;;5.50;53.60;;;;;;4140288;28;20755;-45
2022/03/13 09:31:15;;;;;;;5.00;3.10;;;5.50;53.40;;;;;;4125247;28;20819;-64
2022/03/13 09:33:16;;;;;;;6.20;4.27;;;5.50;53.70;;;;;;4142588;28;20375;-54
2022/03/13 09:35:18;;;;;;;7.70;3.93;;;5.60;53.50;;;;;;4141829;28;20272;-52
2022/03/13 09:37:19;;;;;;;7.17;3.70;;;5.80;53.10;;;;;;4151476;28;20298;-57
2022/03/13 09:39:20;;;;;;;6.10;2.93;;;5.90;53.10;;;;;;4140475;28;20275;-60
2022/03/13 09:41:21;;;;;;;7.83;4.00;;;6.10;52.70;;;;;;4158706;28;20313;-51
2022/03/13 09:43:22;;;;;;;8.53;3.97;;;6.20;52.40;;;;;;4139067;28;20353;-65
2022/03/13 09:45:25;;;;;;;7.63;3.90;;;6.50;51.70;;;;;;4158784;28;20375;-66
2022/03/13 09:47:28;;;;;;;8.30;4.20;;;6.70;51.40;;;;;;4158135;28;20275;-74
2022/03/13 09:49:29;;;;;;;6.63;3.67;;;6.70;51.10;;;;;;4159293;28;20278;-70
2022/03/13 09:51:30;;;;;;;6.07;3.87;;;6.90;51.50;;;;;;4158408;28;20686;-66
2022/03/13 09:53:32;;;;;;;7.80;4.13;;;7.10;51.10;;;;;;4159296;28;20323;-74
2022/03/13 09:55:33;;;;;;;10.07;4.77;;;7.10;51.00;;;;;;4158529;28;20352;-60
2022/03/13 09:57:36;;;;;;;7.67;3.60;;;7.20;50.90;;;;;;4159294;28;20299;-54
2022/03/13 09:59:37;;;;;;;9.47;3.80;;;7.40;50.60;;;;;;4139063;28;20280;-76
2022/03/13 10:01:39;;;;;;;8.43;3.90;;;7.50;50.30;;;;;;4157835;28;20797;-47
2022/03/13 10:03:40;;;;;;;5.53;3.43;;;7.60;50.50;;;;;;4156143;28;20332;-59
2022/03/13 10:05:47;;;;;;;9.13;3.83;;;7.30;49.50;;;;;;4156883;28;20271;-55
2022/03/13 10:07:53;;;;;;;7.90;3.17;;;7.20;49.80;;;;;;4158155;28;20270;-54
2022/03/13 10:09:56;;;;;;;5.73;3.60;;;7.20;50.10;;;;;;4157202;28;20332;-43
2022/03/13 10:12:06;;;;;;;4.90;3.10;;;7.20;50.10;;;;;;4157916;28;20667;-66
2022/03/13 10:14:10;;;;;;;5.18;2.60;;;7.20;49.90;;;;;;4157100;28;20352;-52
2022/03/13 10:16:19;;;;;;;6.77;2.93;;;7.00;49.20;;;;;;4157464;28;20041;-46
2022/03/13 10:18:23;;;;;;;9.83;3.73;;;7.20;50.30;;;;;;4156774;28;20352;-52
2022/03/13 10:20:27;;;;;;;7.67;2.43;;;7.40;50.20;;;;;;4157778;28;20324;-78
2022/03/13 10:22:30;;;;;;;5.50;2.47;;;7.40;49.40;;;;;;4157038;28;20271;-62
2022/03/13 10:24:45;;;;;;;6.73;3.40;;;6.90;48.90;;;;;;4158400;28;20738;-53
2022/03/13 10:26:47;;;;;;;7.80;3.30;;;6.60;48.90;;;;;;4156202;28;20329;-45
2022/03/13 10:28:48;;;;;;;5.80;3.47;;;6.20;49.80;;;;;;4156058;28;20700;-50
2022/03/13 10:30:56;;;;;;;5.13;2.73;;;6.30;50.00;;;;;;4156497;28;20029;-46
2022/03/13 10:32:58;;;;;;;8.90;3.13;;;6.00;49.40;;;;;;4157657;28;20324;-58
2022/03/13 10:35:01;;;;;;;6.90;3.53;;;5.90;50.10;;;;;;4156478;28;20324;-57